Time;durP1;ratioP1;P1;durP2;ratioP2;P2;SDS_P1;SDS_P2;PMS_P1;PMS_P2;Temp;Humidity;BMP_temperature;BMP_pressure;BME280_temperature;BME280_humidity;BME280_pressure;Samples;Min_cycle;Max_cycle;Signal;HPM_P1;HPM_P2
2022/01/05 00:01:10;;;;;;;;;28.00;12.75;;;;;5.43;67.43;100400.22;5095749;27;45355;-75
2022/01/05 00:03:36;;;;;;;;;20.75;13.00;;;;;5.40;67.24;100407.31;5095649;27;45557;-75
2022/01/05 00:06:02;;;;;;;;;55.75;33.00;;;;;5.39;67.98;100402.97;5092684;27;45620;-75
2022/01/05 00:08:28;;;;;;;;;25.50;15.00;;;;;5.20;68.11;100373.53;5102451;27;46338;-75
2022/01/05 00:10:53;;;;;;;;;43.50;30.25;;;;;5.29;68.24;100394.38;5073728;27;45879;-75
2022/01/05 00:13:20;;;;;;;;;24.25;20.25;;;;;5.26;67.67;100389.19;5095510;27;45875;-75
2022/01/05 00:15:45;;;;;;;;;73.00;48.25;;;;;5.30;67.22;100406.63;5092132;27;46542;-75
2022/01/05 00:18:11;;;;;;;;;50.00;28.75;;;;;5.33;67.52;100406.56;5093119;27;46426;-75
2022/01/05 00:20:36;;;;;;;;;71.00;45.67;;;;;5.04;67.22;100379.97;5093118;27;45504;-75
2022/01/05 00:23:02;;;;;;;;;29.50;18.75;;;;;5.15;67.04;100409.50;5093448;27;45752;-75
2022/01/05 00:25:27;;;;;;;;;112.00;70.67;;;;;5.08;67.43;100403.47;5095212;27;45496;-75
2022/01/05 00:27:53;;;;;;;;;21.75;15.50;;;;;4.82;68.39;100356.72;5094205;27;45638;-75
2022/01/05 00:30:18;;;;;;;;;82.67;55.67;;;;;5.05;67.73;100403.53;5093349;27;45697;-75
2022/01/05 00:32:43;;;;;;;;;82.00;49.67;;;;;4.90;67.29;100383.69;5094692;27;45976;-75
2022/01/05 00:35:09;;;;;;;;;73.00;44.67;;;;;5.04;67.54;100412.31;5093034;27;45718;-75
2022/01/05 00:37:35;;;;;;;;;86.00;55.00;;;;;5.07;68.58;100408.78;5093242;27;45571;-75
2022/01/05 00:40:00;;;;;;;;;73.00;43.33;;;;;4.74;68.65;100358.63;5095332;27;46156;-75
2022/01/05 00:42:26;;;;;;;;;39.25;22.25;;;;;4.92;68.01;100387.16;5093051;27;45486;-75
2022/01/05 00:44:51;;;;;;;;;43.00;31.75;;;;;4.85;68.16;100380.25;5091534;27;45458;-75
2022/01/05 00:47:17;;;;;;;;;27.25;15.25;;;;;4.96;67.76;100399.31;5091522;27;46609;-75
2022/01/05 00:49:42;;;;;;;;;58.00;32.75;;;;;4.99;68.45;100417.63;5057688;27;45234;-75
2022/01/05 00:52:08;;;;;;;;;17.50;11.50;;;;;4.99;67.81;100415.00;5094108;27;45532;-75
2022/01/05 00:54:34;;;;;;;;;37.50;14.25;;;;;4.98;67.19;100415.91;5092998;27;45486;-75
2022/01/05 00:56:59;;;;;;;;;28.25;10.75;;;;;4.93;67.90;100415.09;5092860;27;45993;-75
2022/01/05 00:59:25;;;;;;;;;15.25;4.50;;;;;4.93;66.68;100412.47;5093272;27;45387;-75
2022/01/05 01:01:50;;;;;;;;;11.75;7.50;;;;;4.97;68.48;100416.81;5092797;27;45315;-75
2022/01/05 01:04:16;;;;;;;;;19.00;7.00;;;;;4.89;68.07;100387.22;5094632;27;45564;-75
2022/01/05 01:06:41;;;;;;;;;3.00;3.00;;;;;4.87;67.25;100383.72;5092698;27;46607;-75
2022/01/05 01:09:08;;;;;;;;;15.75;11.25;;;;;4.86;67.48;100389.88;5093183;27;45512;-75
2022/01/05 01:11:34;;;;;;;;;8.75;4.50;;;;;5.00;69.16;100416.75;5093906;27;45476;-75
2022/01/05 01:13:59;;;;;;;;;10.75;3.50;;;;;4.98;67.27;100418.53;5080998;27;45740;-75
2022/01/05 01:16:25;;;;;;;;;9.50;3.00;;;;;4.87;67.71;100403.84;5093910;27;45384;-75
2022/01/05 01:18:50;;;;;;;;;7.75;6.00;;;;;4.95;67.23;100409.84;5078791;27;45439;-75
2022/01/05 01:21:16;;;;;;;;;10.50;6.25;;;;;4.98;67.15;100423.75;5095018;27;45417;-75
2022/01/05 01:23:52;;;;;;;;;6.50;2.00;;;;;4.86;66.79;100423.97;5094719;27;45498;-75
2022/01/05 01:26:18;;;;;;;;;11.25;5.00;;;;;4.91;67.13;100427.38;5083590;27;45702;-75
2022/01/05 01:28:43;;;;;;;;;16.50;5.50;;;;;4.74;69.05;100404.06;5096397;27;45415;-75
2022/01/05 01:31:08;;;;;;;;;9.25;2.75;;;;;4.77;68.44;100417.09;5098261;27;45366;-75
2022/01/05 01:33:34;;;;;;;;;13.25;3.00;;;;;4.99;66.85;100432.50;5096696;27;45502;-75
2022/01/05 01:35:59;;;;;;;;;10.50;7.00;;;;;4.98;68.63;100442.13;5096042;27;45933;-75
2022/01/05 01:38:25;;;;;;;;;10.00;4.00;;;;;4.74;67.09;100392.69;5077868;27;45342;-75
2022/01/05 01:40:50;;;;;;;;;10.00;4.50;;;;;4.92;66.13;100423.88;5096416;27;45751;-75
2022/01/05 01:43:16;;;;;;;;;5.00;5.00;;;;;4.94;67.08;100429.06;5079625;27;45803;-75
2022/01/05 01:45:41;;;;;;;;;4.50;2.75;;;;;4.95;68.17;100430.81;5095711;27;46039;-75
2022/01/05 01:48:06;;;;;;;;;7.75;5.00;;;;;4.96;67.22;100437.78;5077273;27;45555;-74
2022/01/05 01:50:32;;;;;;;;;3.00;2.00;;;;;4.92;66.81;100439.59;5085605;27;45387;-75
2022/01/05 01:52:57;;;;;;;;;8.50;4.50;;;;;4.95;69.05;100444.78;5096318;27;45379;-74
2022/01/05 01:55:22;;;;;;;;;6.00;6.00;;;;;4.89;67.82;100426.53;5097446;27;45666;-75
2022/01/05 01:57:48;;;;;;;;;21.50;10.50;;;;;4.89;67.41;100437.03;5078232;27;45745;-75
2022/01/05 02:00:14;;;;;;;;;26.25;11.00;;;;;4.92;66.98;100447.47;5095707;27;45383;-75
2022/01/05 02:02:40;;;;;;;;;46.00;26.75;;;;;4.64;67.14;100412.06;5087348;27;45501;-75
2022/01/05 02:05:06;;;;;;;;;34.50;15.50;;;;;4.83;67.89;100454.63;5096029;27;49918;-75
2022/01/05 02:07:32;;;;;;;;;15.00;8.25;;;;;4.90;67.51;100467.59;5076250;27;46118;-75
2022/01/05 02:09:58;;;;;;;;;30.75;16.25;;;;;4.86;67.20;100470.31;5095544;27;45439;-74
2022/01/05 02:12:26;;;;;;;;;13.25;10.00;;;;;4.90;67.93;100479.84;5084875;27;45348;-75
2022/01/05 02:14:53;;;;;;;;;37.75;18.50;;;;;4.87;67.38;100478.13;5094995;27;45623;-74
2022/01/05 02:17:22;;;;;;;;;12.25;6.25;;;;;4.76;66.72;100464.31;5095636;27;45446;-75
2022/01/05 02:19:48;;;;;;;;;20.75;12.75;;;;;4.72;66.31;100452.16;5093742;27;45346;-75
2022/01/05 02:22:13;;;;;;;;;8.25;5.50;;;;;4.81;66.13;100487.84;5097539;27;45286;-75
2022/01/05 02:24:38;;;;;;;;;6.50;5.50;;;;;4.62;66.52;100458.41;5095237;27;46056;-75
2022/01/05 02:27:04;;;;;;;;;16.00;11.00;;;;;4.75;66.61;100489.66;5095510;27;45405;-75
2022/01/05 02:29:30;;;;;;;;;25.50;17.25;;;;;4.67;66.32;100481.03;5094157;27;45373;-74
2022/01/05 02:31:59;;;;;;;;;21.25;14.50;;;;;4.64;66.43;100488.09;5094129;27;45329;-75
2022/01/05 02:34:24;;;;;;;;;29.00;15.75;;;;;4.50;66.19;100468.19;5079163;27;46937;-74
2022/01/05 02:36:50;;;;;;;;;17.50;10.50;;;;;4.37;66.91;100460.50;5095490;27;45793;-75
2022/01/05 02:39:15;;;;;;;;;12.00;7.00;;;;;4.22;67.13;100443.22;5077068;27;45466;-74
2022/01/05 02:41:40;;;;;;;;;10.25;8.50;;;;;4.52;66.68;100503.09;5095489;27;45458;-75
2022/01/05 02:44:06;;;;;;;;;15.25;9.00;;;;;4.38;68.25;100470.09;5076567;27;48020;-74
2022/01/05 02:46:32;;;;;;;;;10.00;6.00;;;;;4.40;67.80;100479.66;5095601;27;45630;-74
2022/01/05 02:48:58;;;;;;;;;13.50;5.75;;;;;4.57;67.86;100500.41;5096858;27;45338;-75
2022/01/05 02:51:24;;;;;;;;;15.50;9.50;;;;;4.57;67.33;100507.41;5094639;27;45396;-74
2022/01/05 02:53:49;;;;;;;;;18.75;7.00;;;;;4.48;68.03;100503.16;5080225;27;48222;-75
2022/01/05 02:56:15;;;;;;;;;10.25;6.50;;;;;4.55;69.05;100517.91;5094950;27;45418;-75
2022/01/05 02:58:40;;;;;;;;;8.00;5.75;;;;;4.51;68.56;100503.13;5094392;27;45953;-74
2022/01/05 03:01:06;;;;;;;;;10.25;2.50;;;;;4.59;67.57;100514.38;5096502;27;45438;-75
2022/01/05 03:03:32;;;;;;;;;7.25;5.50;;;;;4.55;67.26;100524.00;5094591;27;45386;-75
2022/01/05 03:05:58;;;;;;;;;13.00;8.50;;;;;4.49;67.50;100510.13;5094564;27;45426;-75
2022/01/05 03:08:24;;;;;;;;;5.50;3.00;;;;;4.44;68.89;100499.72;5093540;27;45427;-75
2022/01/05 03:10:49;;;;;;;;;6.00;2.25;;;;;4.44;67.70;100511.94;5110147;27;45561;-75
2022/01/05 03:13:15;;;;;;;;;5.75;2.00;;;;;4.47;67.51;100515.41;5096093;27;46211;-75
2022/01/05 03:15:40;;;;;;;;;11.50;5.00;;;;;4.55;67.74;100517.91;5094504;27;45444;-75
2022/01/05 03:18:07;;;;;;;;;7.50;5.00;;;;;4.53;68.38;100512.69;5075967;27;45528;-75
2022/01/05 03:20:34;;;;;;;;;5.75;2.75;;;;;4.62;66.88;100530.06;5094596;27;45714;-74
2022/01/05 03:23:00;;;;;;;;;4.75;2.00;;;;;4.61;66.84;100532.69;5094347;27;45244;-75
2022/01/05 03:25:26;;;;;;;;;7.75;1.00;;;;;4.47;67.56;100519.75;5095306;27;46564;-75
2022/01/05 03:27:53;;;;;;;;;7.75;5.50;;;;;4.57;68.13;100541.50;5093492;27;45496;-74
2022/01/05 03:30:22;;;;;;;;;3.00;1.50;;;;;4.41;67.44;100525.97;5094503;27;45330;-75
2022/01/05 03:35:13;;;;;;;;;11.00;5.00;;;;;4.49;68.51;100555.53;5094374;27;45600;-75
2022/01/05 03:37:38;;;;;;;;;7.00;2.75;;;;;4.48;68.58;100545.94;5094743;27;46094;-75
2022/01/05 03:40:05;;;;;;;;;13.00;7.00;;;;;4.45;67.93;100551.22;5096055;27;45482;-75
2022/01/05 03:42:30;;;;;;;;;15.00;5.50;;;;;4.17;67.23;100523.63;5093678;27;45478;-74
2022/01/05 03:44:56;;;;;;;;;5.25;2.00;;;;;4.41;67.75;100562.66;5094269;27;45601;-75
2022/01/05 03:47:21;;;;;;;;;11.00;2.50;;;;;4.31;67.79;100547.91;5093985;27;45527;-74
2022/01/05 03:49:46;;;;;;;;;10.00;5.00;;;;;4.25;67.21;100542.75;5094602;27;45423;-74
2022/01/05 03:52:12;;;;;;;;;5.75;4.00;;;;;4.04;68.97;100504.56;5095699;27;45480;-74
2022/01/05 03:54:37;;;;;;;;;7.50;2.00;;;;;4.41;68.21;100573.13;5093905;27;45549;-74
2022/01/05 03:57:03;;;;;;;;;6.75;2.25;;;;;4.30;67.92;100554.91;5093875;27;45442;-74
2022/01/05 03:59:28;;;;;;;;;4.00;2.50;;;;;4.43;68.38;100575.72;5094607;27;45478;-75
2022/01/05 04:01:54;;;;;;;;;14.00;7.00;;;;;4.37;69.45;100565.31;5094466;27;46485;-75
2022/01/05 04:04:19;;;;;;;;;14.75;8.50;;;;;4.31;68.86;100546.16;5096606;27;45443;-74
2022/01/05 04:06:44;;;;;;;;;8.00;7.75;;;;;4.48;68.01;100582.63;5075652;27;45705;-75
2022/01/05 04:09:11;;;;;;;;;9.75;6.50;;;;;4.24;68.98;100533.16;5093719;27;45469;-74
2022/01/05 04:11:36;;;;;;;;;9.50;6.25;;;;;4.51;68.35;100574.75;5093014;27;46015;-75
2022/01/05 04:14:01;;;;;;;;;7.25;2.00;;;;;4.44;68.53;100557.38;5093811;27;45306;-75
2022/01/05 04:16:27;;;;;;;;;3.25;2.75;;;;;4.50;68.63;100578.25;5094973;27;45328;-75
2022/01/05 04:18:52;;;;;;;;;10.25;5.00;;;;;4.42;68.08;100553.88;5094310;27;45465;-74
2022/01/05 04:21:17;;;;;;;;;5.75;4.00;;;;;4.29;68.41;100557.53;5093409;27;46289;-74
2022/01/05 04:23:43;;;;;;;;;5.00;2.25;;;;;4.45;67.90;100594.91;5075513;27;45486;-74
2022/01/05 04:26:08;;;;;;;;;11.00;5.00;;;;;4.40;67.35;100588.84;5093223;27;45311;-74
2022/01/05 04:28:35;;;;;;;;;6.25;2.00;;;;;4.32;67.45;100589.81;5094116;27;45410;-74
2022/01/05 04:31:00;;;;;;;;;3.50;2.00;;;;;4.27;68.62;100577.66;5095068;27;46559;-74
2022/01/05 04:33:26;;;;;;;;;9.00;5.00;;;;;4.13;68.33;100556.84;5093136;27;45511;-74
2022/01/05 04:35:51;;;;;;;;;5.75;5.00;;;;;4.38;68.42;100599.34;5093593;27;45414;-74
2022/01/05 04:38:16;;;;;;;;;4.50;4.50;;;;;4.46;68.86;100617.59;5094442;27;45475;-74
2022/01/05 04:40:43;;;;;;;;;7.00;2.00;;;;;4.48;67.76;100621.94;5092885;27;45381;-74
2022/01/05 04:43:09;;;;;;;;;5.00;1.00;;;;;4.30;68.04;100583.72;5095124;27;45387;-74
2022/01/05 04:45:34;;;;;;;;;5.00;1.50;;;;;4.30;68.10;100582.84;5091919;27;45457;-74
2022/01/05 04:47:59;;;;;;;;;3.00;3.00;;;;;4.24;67.96;100577.69;5093044;27;45382;-74
2022/01/05 04:50:25;;;;;;;;;2.75;2.75;;;;;4.40;68.42;100610.69;5093017;27;45948;-74
2022/01/05 04:52:50;;;;;;;;;6.25;2.00;;;;;4.35;68.74;100603.75;5096234;27;45415;-74
2022/01/05 04:55:16;;;;;;;;;1.00;1.00;;;;;4.21;68.97;100585.59;5101829;27;45554;-74
2022/01/05 04:57:41;;;;;;;;;14.25;5.75;;;;;4.46;67.90;100625.47;5099777;27;45432;-74
2022/01/05 05:00:07;;;;;;;;;4.75;3.50;;;;;4.30;68.72;100612.53;5079705;27;48128;-74
2022/01/05 05:02:32;;;;;;;;;4.25;2.00;;;;;4.39;67.93;100632.53;5099694;27;45430;-74
2022/01/05 05:04:58;;;;;;;;;5.00;2.75;;;;;4.46;68.16;100634.19;5100957;27;45647;-74
2022/01/05 05:07:23;;;;;;;;;5.50;1.00;;;;;4.48;68.94;100642.91;5101695;27;45353;-74
2022/01/05 05:09:48;;;;;;;;;4.00;2.00;;;;;4.37;67.30;100629.06;5099694;27;45392;-74
2022/01/05 05:12:14;;;;;;;;;6.50;2.25;;;;;4.42;68.53;100632.50;5099647;27;45392;-74
2022/01/05 05:14:39;;;;;;;;;1.25;1.25;;;;;4.40;68.00;100636.88;5099836;27;45612;-74
2022/01/05 05:17:05;;;;;;;;;5.00;2.50;;;;;4.22;67.93;100606.50;5099775;27;45362;-74
2022/01/05 05:19:31;;;;;;;;;2.25;2.00;;;;;4.43;67.81;100647.31;5100605;27;46010;-74
2022/01/05 05:21:57;;;;;;;;;2.25;1.00;;;;;4.34;67.93;100631.72;5100462;27;45337;-74
2022/01/05 05:24:22;;;;;;;;;6.00;3.00;;;;;4.43;68.24;100655.19;5077590;27;45360;-74
2022/01/05 05:26:48;;;;;;;;;4.50;1.75;;;;;4.40;68.74;100652.59;5080891;27;45656;-74
2022/01/05 05:29:13;;;;;;;;;3.75;1.50;;;;;4.21;68.28;100630.09;5099869;27;46088;-74
2022/01/05 05:31:38;;;;;;;;;2.50;1.00;;;;;4.44;67.46;100663.91;5100357;27;45385;-74
2022/01/05 05:34:04;;;;;;;;;1.50;1.00;;;;;4.31;68.49;100644.84;5080742;27;45444;-74
2022/01/05 05:36:29;;;;;;;;;3.50;1.50;;;;;4.31;67.70;100648.31;5099400;27;45556;-74
2022/01/05 05:38:54;;;;;;;;;1.00;1.00;;;;;4.41;67.88;100669.19;5083975;27;48283;-74
2022/01/05 05:41:19;;;;;;;;;4.75;1.50;;;;;4.06;68.09;100610.19;5099192;27;45913;-74
2022/01/05 05:43:45;;;;;;;;;5.25;1.50;;;;;4.18;67.49;100619.66;5099592;27;45455;-74
2022/01/05 05:46:10;;;;;;;;;6.75;2.50;;;;;4.33;67.43;100659.66;5083021;27;45353;-74
2022/01/05 05:48:36;;;;;;;;;3.50;2.00;;;;;4.20;67.77;100638.81;5098935;27;45907;-74
2022/01/05 05:51:01;;;;;;;;;5.75;3.50;;;;;4.32;68.21;100663.19;5080995;27;45481;-74
2022/01/05 05:53:27;;;;;;;;;1.75;1.25;;;;;4.31;67.23;100660.56;5097367;27;45311;-74
2022/01/05 05:55:52;;;;;;;;;4.00;1.25;;;;;4.41;67.46;100682.28;5099231;27;45481;-74
2022/01/05 05:58:17;;;;;;;;;5.50;1.75;;;;;4.31;69.32;100665.78;5078483;27;47781;-74
2022/01/05 06:00:43;;;;;;;;;8.00;2.00;;;;;4.42;67.90;100682.28;5098364;27;45700;-74
2022/01/05 06:03:08;;;;;;;;;5.75;2.75;;;;;4.43;67.03;100685.78;5097059;27;45496;-74
2022/01/05 06:05:34;;;;;;;;;13.00;5.00;;;;;4.26;67.76;100662.34;5094042;27;45240;-75
2022/01/05 06:07:59;;;;;;;;;6.75;4.50;;;;;4.42;68.23;100690.16;5109088;27;46230;-74
2022/01/05 06:10:25;;;;;;;;;7.75;4.00;;;;;4.42;67.16;100689.28;5102243;27;45355;-74
2022/01/05 06:12:50;;;;;;;;;2.50;1.00;;;;;4.35;67.34;100687.59;5101184;27;45282;-75
2022/01/05 06:15:16;;;;;;;;;5.50;5.50;;;;;4.28;68.48;100684.16;5095715;27;45774;-74
2022/01/05 06:17:41;;;;;;;;;7.50;3.00;;;;;4.29;67.62;100685.91;5095647;27;46429;-74
2022/01/05 06:20:09;;;;;;;;;6.50;2.50;;;;;3.90;68.16;100640.84;5090064;27;45473;-74
2022/01/05 06:22:41;;;;;;;;;2.00;2.00;;;;;4.28;67.49;100705.13;5099842;27;45366;-74
2022/01/05 06:25:08;;;;;;;;;4.00;2.50;;;;;4.19;68.07;100697.34;5096135;27;45376;-74
2022/01/05 06:27:34;;;;;;;;;3.50;2.50;;;;;4.24;68.76;100706.91;5077034;27;46860;-74
2022/01/05 06:30:04;;;;;;;;;4.00;2.00;;;;;4.30;68.95;100712.09;5095132;27;45350;-74
2022/01/05 06:32:30;;;;;;;;;3.25;2.00;;;;;4.29;68.71;100701.63;5095318;27;45424;-75
2022/01/05 06:34:55;;;;;;;;;5.50;5.25;;;;;4.31;68.66;100715.56;5095686;27;45427;-74
2022/01/05 06:37:21;;;;;;;;;10.75;3.00;;;;;4.09;67.95;100684.34;5096801;27;45658;-75
2022/01/05 06:39:46;;;;;;;;;5.00;5.00;;;;;4.31;68.38;100720.81;5076668;27;49950;-74
2022/01/05 06:42:12;;;;;;;;;11.00;5.00;;;;;4.14;68.14;100696.50;5095219;27;45480;-74
2022/01/05 06:44:37;;;;;;;;;7.00;6.00;;;;;4.28;69.67;100718.22;5095118;27;45484;-74
2022/01/05 06:47:03;;;;;;;;;6.00;3.00;;;;;4.22;68.57;100703.44;5095428;27;45929;-74
2022/01/05 06:49:28;;;;;;;;;6.50;1.00;;;;;3.91;69.31;100658.28;5078157;27;45922;-74
2022/01/05 06:51:53;;;;;;;;;5.50;1.25;;;;;4.36;68.82;100739.13;5095454;27;45421;-74
2022/01/05 06:54:19;;;;;;;;;6.25;3.00;;;;;4.24;69.14;100714.78;5085181;27;45589;-74
2022/01/05 06:56:46;;;;;;;;;12.25;2.50;;;;;4.41;69.58;100735.59;5076441;27;47228;-74
2022/01/05 06:59:12;;;;;;;;;3.00;1.00;;;;;4.21;68.68;100716.56;5097387;27;45457;-73
2022/01/05 07:01:37;;;;;;;;;11.75;5.75;;;;;4.31;69.19;100737.41;5094816;27;45758;-73
2022/01/05 07:04:03;;;;;;;;;24.25;11.00;;;;;4.42;69.02;100753.03;5096866;27;45525;-73
2022/01/05 07:06:28;;;;;;;;;8.00;7.00;;;;;4.34;68.92;100741.75;5094557;27;45370;-73
2022/01/05 07:08:53;;;;;;;;;11.75;10.25;;;;;4.40;68.66;100759.16;5094564;27;45276;-74
2022/01/05 07:11:19;;;;;;;;;6.50;5.00;;;;;4.26;68.07;100743.56;5089249;27;45626;-74
2022/01/05 07:13:44;;;;;;;;;6.25;3.00;;;;;4.21;69.31;100742.75;5094869;27;45556;-73
2022/01/05 07:16:09;;;;;;;;;4.25;2.00;;;;;4.19;69.07;100744.50;5096098;27;45599;-73
2022/01/05 07:18:35;;;;;;;;;8.50;5.75;;;;;4.16;68.79;100745.38;5097751;27;46739;-73
2022/01/05 07:21:00;;;;;;;;;5.25;5.00;;;;;4.18;69.16;100754.13;5092584;27;45617;-73
2022/01/05 07:23:25;;;;;;;;;12.75;5.25;;;;;4.32;69.04;100769.72;5076237;27;45591;-73
2022/01/05 07:25:51;;;;;;;;;10.50;5.25;;;;;4.32;69.67;100777.56;5094240;27;45953;-73
2022/01/05 07:28:16;;;;;;;;;2.75;2.75;;;;;4.33;69.13;100774.94;5096319;27;45398;-74
2022/01/05 07:30:41;;;;;;;;;12.75;8.75;;;;;4.30;68.16;100785.44;5093992;27;45378;-73
2022/01/05 07:33:07;;;;;;;;;10.75;5.75;;;;;4.34;68.75;100794.16;5094582;27;45528;-74
2022/01/05 07:35:32;;;;;;;;;4.50;3.00;;;;;4.36;69.30;100797.63;5093873;27;45460;-75
2022/01/05 07:37:57;;;;;;;;;10.25;5.00;;;;;4.38;69.16;100797.63;5073553;27;45779;-74
2022/01/05 07:40:23;;;;;;;;;11.75;6.75;;;;;4.39;69.32;100788.88;5096530;27;45472;-75
2022/01/05 07:42:50;;;;;;;;;13.00;6.50;;;;;4.43;68.57;100795.81;5093614;27;45334;-74
2022/01/05 07:45:15;;;;;;;;;14.50;8.75;;;;;4.45;69.14;100800.19;5063705;27;46401;-73
2022/01/05 07:47:42;;;;;;;;;15.50;9.25;;;;;4.33;69.33;100787.19;5092684;27;45540;-72
2022/01/05 07:50:14;;;;;;;;;10.00;6.25;;;;;4.27;69.17;100775.00;5094430;27;45485;-72
2022/01/05 07:52:45;;;;;;;;;8.00;6.25;;;;;4.38;68.42;100789.75;5094261;27;45409;-72
2022/01/05 07:55:11;;;;;;;;;8.00;2.50;;;;;4.46;68.82;100816.78;5096203;27;45364;-72
2022/01/05 07:57:37;;;;;;;;;24.75;17.50;;;;;4.38;69.17;100803.72;5093857;27;45520;-72
2022/01/05 08:00:04;;;;;;;;;22.00;11.00;;;;;4.48;68.94;100830.75;5092929;27;45350;-73
2022/01/05 08:02:30;;;;;;;;;17.50;10.00;;;;;4.49;68.96;100830.72;5093492;27;45585;-73
2022/01/05 08:04:55;;;;;;;;;15.00;14.00;;;;;4.47;68.40;100826.34;5094108;27;46060;-73
2022/01/05 08:07:20;;;;;;;;;9.25;5.75;;;;;4.37;68.18;100806.38;5096249;27;45283;-72
2022/01/05 08:09:46;;;;;;;;;29.50;19.25;;;;;4.38;69.30;100813.34;5093766;27;45453;-73
2022/01/05 08:12:11;;;;;;;;;24.50;20.00;;;;;4.53;69.57;100835.06;5093621;27;45537;-71
2022/01/05 08:14:37;;;;;;;;;39.00;29.75;;;;;4.46;69.03;100814.16;5093542;27;45921;-71
2022/01/05 08:17:02;;;;;;;;;27.50;22.25;;;;;4.65;69.25;100851.59;5093971;27;45445;-72
2022/01/05 08:19:27;;;;;;;;;22.00;15.25;;;;;4.64;69.22;100853.31;5095339;27;45431;-71
2022/01/05 08:21:53;;;;;;;;;23.25;13.50;;;;;4.51;68.57;100830.72;5105571;27;45722;-72
2022/01/05 08:24:18;;;;;;;;;17.25;12.25;;;;;4.67;69.57;100855.03;5093398;27;45442;-72
2022/01/05 08:26:43;;;;;;;;;20.00;11.50;;;;;4.58;68.91;100839.38;5092565;27;45442;-72
2022/01/05 08:29:09;;;;;;;;;15.25;7.00;;;;;4.53;68.39;100848.16;5074953;27;45487;-71
2022/01/05 08:31:34;;;;;;;;;17.00;11.00;;;;;4.72;69.00;100866.38;5094277;27;45397;-72
2022/01/05 08:33:59;;;;;;;;;16.75;15.25;;;;;4.51;68.30;100843.81;5095102;27;45633;-71
2022/01/05 08:36:26;;;;;;;;;16.75;9.00;;;;;4.66;70.05;100861.19;5093303;27;45492;-72
2022/01/05 08:38:51;;;;;;;;;27.00;14.75;;;;;4.62;68.54;100851.56;5092354;27;45480;-71
2022/01/05 08:41:16;;;;;;;;;42.25;26.00;;;;;4.78;68.79;100882.03;5093211;27;45412;-71
2022/01/05 08:43:42;;;;;;;;;16.75;10.00;;;;;4.79;68.76;100889.03;5091637;27;47753;-72
2022/01/05 08:46:07;;;;;;;;;32.00;25.00;;;;;4.77;68.74;100880.31;5093413;27;45358;-72
2022/01/05 08:48:33;;;;;;;;;11.75;8.25;;;;;4.66;68.99;100871.66;5093107;27;45410;-71
2022/01/05 08:50:59;;;;;;;;;11.50;7.00;;;;;4.65;69.23;100859.44;5092222;27;45394;-71
2022/01/05 08:53:24;;;;;;;;;22.00;15.25;;;;;4.73;69.94;100879.44;5092984;27;46522;-72
2022/01/05 08:55:51;;;;;;;;;22.50;14.00;;;;;4.77;69.39;100886.44;5092906;27;45444;-71
2022/01/05 08:58:18;;;;;;;;;17.50;10.25;;;;;4.65;69.40;100867.31;5095356;27;45306;-72
2022/01/05 09:00:44;;;;;;;;;25.00;10.75;;;;;4.69;69.11;100869.00;5092585;27;45521;-74
2022/01/05 09:03:13;;;;;;;;;21.75;12.00;;;;;4.75;69.88;100874.22;5093223;27;45477;-73
2022/01/05 09:05:39;;;;;;;;;10.00;7.25;;;;;4.84;69.43;100889.84;5087430;27;45599;-73
2022/01/05 09:08:05;;;;;;;;;25.50;17.00;;;;;4.98;69.89;100918.59;5093361;27;45455;-73
2022/01/05 09:10:30;;;;;;;;;20.75;10.50;;;;;4.94;68.52;100898.50;5094135;27;45442;-72
2022/01/05 09:12:56;;;;;;;;;20.75;12.50;;;;;5.08;69.11;100919.38;5093951;27;46389;-72
2022/01/05 09:15:23;;;;;;;;;8.50;5.25;;;;;5.11;69.49;100924.59;5092493;27;45719;-72
2022/01/05 09:17:48;;;;;;;;;14.25;5.00;;;;;5.16;69.33;100935.94;5091516;27;45345;-72
2022/01/05 09:20:14;;;;;;;;;12.75;7.75;;;;;5.16;68.31;100926.31;5093305;27;45720;-72
2022/01/05 09:22:39;;;;;;;;;8.25;6.50;;;;;5.17;68.75;100933.28;5092580;27;46768;-72
2022/01/05 09:25:07;;;;;;;;;16.25;7.75;;;;;5.20;69.19;100943.75;5094529;27;45322;-72
2022/01/05 09:27:32;;;;;;;;;7.00;3.50;;;;;5.24;68.93;100944.63;5093253;27;45433;-72
2022/01/05 09:29:58;;;;;;;;;7.25;6.75;;;;;5.24;68.49;100948.09;5085027;27;45478;-73
2022/01/05 09:32:23;;;;;;;;;9.25;6.50;;;;;5.19;68.44;100942.03;5093134;27;45432;-72
2022/01/05 09:34:50;;;;;;;;;15.50;9.00;;;;;5.26;68.30;100953.31;5092611;27;45444;-72
2022/01/05 09:37:28;;;;;;;;;8.33;5.67;;;;;5.10;68.35;100939.47;5094849;27;45480;-72
2022/01/05 09:42:39;;;;;;;;;19.25;11.00;;;;;5.19;68.55;100936.78;5096031;27;45309;-73
2022/01/05 09:45:16;;;;;;;;;19.50;11.00;;;;;5.40;68.53;100969.81;5096148;27;45563;-73
2022/01/05 09:48:16;;;;;;;;;17.25;14.00;;;;;5.53;68.68;100973.22;5096064;27;45402;-73
2022/01/05 09:50:53;;;;;;;;;20.00;11.00;;;;;5.76;68.08;100980.84;5089541;27;45316;-73
2022/01/05 09:53:20;;;;;;;;;23.25;13.50;;;;;6.02;69.21;100977.94;5096315;27;46546;-73
2022/01/05 09:55:51;;;;;;;;;20.25;13.50;;;;;6.39;67.28;100982.78;5095677;27;45460;-73
2022/01/05 09:58:18;;;;;;;;;11.50;8.50;;;;;6.44;65.78;100954.66;5097970;27;45310;-74
2022/01/05 10:00:44;;;;;;;;;21.50;11.00;;;;;6.59;66.21;100962.34;5094160;27;45324;-72
2022/01/05 10:03:10;;;;;;;;;15.00;7.25;;;;;6.87;65.31;100992.63;5098257;27;45453;-71
2022/01/05 10:05:35;;;;;;;;;13.00;5.00;;;;;6.81;65.11;100969.91;5085847;27;45348;-71
2022/01/05 10:08:01;;;;;;;;;10.75;7.25;;;;;7.13;65.08;100994.84;5097653;27;46095;-71
2022/01/05 10:10:26;;;;;;;;;18.75;12.00;;;;;7.15;64.44;100974.66;5097460;27;45489;-72
2022/01/05 10:12:52;;;;;;;;;8.00;7.25;;;;;7.37;64.08;100972.50;5096778;27;45398;-71
2022/01/05 10:15:19;;;;;;;;;33.75;20.50;;;;;7.75;64.53;101008.69;5076580;27;45407;-71
2022/01/05 10:17:44;;;;;;;;;9.75;6.75;;;;;7.70;64.02;100971.03;5095281;27;45349;-70
2022/01/05 10:20:11;;;;;;;;;16.00;9.00;;;;;8.02;63.41;101009.94;5095776;27;45518;-70
2022/01/05 10:22:38;;;;;;;;;19.00;8.25;;;;;8.12;63.13;101021.19;5095550;27;45500;-71
2022/01/05 10:25:06;;;;;;;;;7.00;4.50;;;;;8.08;62.13;101017.72;5099158;27;46854;-71
2022/01/05 10:27:33;;;;;;;;;13.00;7.00;;;;;8.04;62.57;101009.94;5094583;27;45508;-71
2022/01/05 10:30:04;;;;;;;;;19.50;8.50;;;;;7.94;62.59;101020.66;5094990;27;45550;-71
2022/01/05 10:32:33;;;;;;;;;17.75;11.75;;;;;7.90;62.60;101010.19;5102147;27;47201;-71
2022/01/05 10:35:08;;;;;;;;;24.50;12.50;;;;;7.91;63.65;101014.53;5093737;27;45420;-71
2022/01/05 10:37:35;;;;;;;;;15.75;9.25;;;;;7.95;63.46;101018.88;5095573;27;45323;-71
2022/01/05 10:40:20;;;;;;;;;13.25;11.50;;;;;7.88;63.62;101004.06;5096953;27;45378;-71
2022/01/05 10:42:52;;;;;;;;;14.75;9.00;;;;;7.87;63.67;100991.78;5081892;27;47991;-71
2022/01/05 10:45:45;;;;;;;;;6.00;5.00;;;;;7.93;63.61;100999.59;5098624;27;45492;-71
2022/01/05 10:48:13;;;;;;;;;10.25;5.00;;;;;8.11;63.18;101016.81;5088105;27;45523;-71
2022/01/05 10:50:39;;;;;;;;;8.50;7.25;;;;;8.08;63.71;101007.19;5093795;27;45439;-71
2022/01/05 10:53:05;;;;;;;;;12.75;4.00;;;;;8.27;62.95;101025.28;5094177;27;46294;-71
2022/01/05 10:55:32;;;;;;;;;5.00;3.50;;;;;8.33;62.57;101033.94;5095591;27;45497;-71
2022/01/05 10:58:04;;;;;;;;;7.25;2.50;;;;;8.43;63.28;101041.69;5095720;27;45712;-71
2022/01/05 11:00:33;;;;;;;;;4.00;3.00;;;;;8.45;62.21;101032.84;5093835;27;45477;-71
2022/01/05 11:02:59;;;;;;;;;4.50;3.50;;;;;8.49;63.24;101029.25;5099805;27;45919;-70
2022/01/05 11:05:25;;;;;;;;;4.00;3.00;;;;;8.53;62.92;101030.94;5094730;27;45494;-71
2022/01/05 11:07:50;;;;;;;;;9.75;7.50;;;;;8.63;62.01;101048.28;5094601;27;45314;-71
2022/01/05 11:10:19;;;;;;;;;9.75;3.75;;;;;8.69;62.88;101043.78;5096591;27;45541;-70
2022/01/05 11:12:45;;;;;;;;;6.75;4.00;;;;;8.73;62.53;101045.44;5093841;27;45646;-70
2022/01/05 11:15:31;;;;;;;;;4.25;3.75;;;;;8.77;61.64;101044.50;5095217;27;45304;-70
2022/01/05 11:18:10;;;;;;;;;7.50;3.00;;;;;8.79;62.03;101053.22;5091954;27;45390;-70
2022/01/05 11:20:42;;;;;;;;;5.00;3.00;;;;;8.79;61.90;101059.38;5093757;27;45476;-70
2022/01/05 11:23:08;;;;;;;;;11.00;4.00;;;;;8.77;62.50;101065.63;5060412;27;47255;-70
2022/01/05 11:25:38;;;;;;;;;5.75;1.75;;;;;8.66;62.53;101046.50;5094732;27;45261;-70
2022/01/05 11:28:06;;;;;;;;;4.00;2.00;;;;;8.73;61.93;101058.66;5096201;27;45319;-70